Time;durP1;ratioP1;P1;durP2;ratioP2;P2;SDS_P1;SDS_P2;PMS_P1;PMS_P2;Temp;Humidity;BMP_temperature;BMP_pressure;BME280_temperature;BME280_humidity;BME280_pressure;Samples;Min_cycle;Max_cycle;Signal;HPM_P1;HPM_P2
2022/11/17 02:25:39;;;;;;;40.05;28.90;;;;;;;5.18;100.00;99001.34;1792218;77;28640;-65
2022/11/17 02:28:29;;;;;;;42.17;26.17;;;;;;;5.32;100.00;98995.37;1793987;79;20983;-66
2022/11/17 02:31:28;;;;;;;43.50;26.20;;;;;;;5.50;100.00;98997.58;1790465;79;21219;-66
2022/11/17 02:34:24;;;;;;;42.43;25.07;;;;;;;5.49;100.00;98992.11;1770761;80;21168;-68
2022/11/17 02:36:59;;;;;;;42.73;25.73;;;;;;;5.60;100.00;98986.94;1774985;80;20943;-64
2022/11/17 02:39:41;;;;;;;46.47;27.07;;;;;;;5.71;100.00;98985.67;1786551;79;21640;-69
2022/11/17 02:42:17;;;;;;;45.77;26.80;;;;;;;5.74;100.00;98982.23;1776638;79;21218;-65
2022/11/17 02:44:57;;;;;;;41.73;25.30;;;;;;;5.73;100.00;98984.52;1803037;79;21302;-64
2022/11/17 02:47:29;;;;;;;43.90;25.52;;;;;;;5.70;100.00;98977.12;1778617;79;21606;-65
2022/11/17 02:50:03;;;;;;;39.63;24.63;;;;;;;5.73;100.00;98979.84;1773143;79;20972;-66
2022/11/17 02:52:31;;;;;;;38.17;23.60;;;;;;;5.72;100.00;98976.92;1797141;79;20959;-73
2022/11/17 02:55:08;;;;;;;32.77;23.00;;;;;;;5.79;100.00;98970.04;1794007;79;21175;-71
2022/11/17 02:57:39;;;;;;;35.23;25.03;;;;;;;5.85;100.00;98966.73;1790430;79;21156;-65
2022/11/17 03:00:11;;;;;;;37.23;25.63;;;;;;;5.90;100.00;98965.67;1791575;79;21078;-65
2022/11/17 03:03:07;;;;;;;34.20;24.13;;;;;;;5.86;100.00;98968.33;1775625;80;21176;-68
2022/11/17 03:06:22;;;;;;;36.00;25.10;;;;;;;5.85;100.00;98959.77;1810910;79;21744;-65
2022/11/17 03:09:00;;;;;;;36.93;24.70;;;;;;;5.90;100.00;98955.83;1756986;80;21251;-63
2022/11/17 03:11:35;;;;;;;34.63;24.47;;;;;;;5.83;100.00;98956.58;1804153;78;21263;-69
2022/11/17 03:14:29;;;;;;;37.33;25.13;;;;;;;5.76;100.00;98957.00;1797187;78;21104;-65
2022/11/17 03:17:04;;;;;;;37.17;24.70;;;;;;;5.76;100.00;98949.74;1800467;78;21220;-67
2022/11/17 03:19:36;;;;;;;36.17;22.33;;;;;;;5.72;100.00;98953.66;1806516;78;21222;-66
2022/11/17 03:22:27;;;;;;;31.87;22.00;;;;;;;5.81;100.00;98952.57;1804756;78;21271;-65
2022/11/17 03:24:58;;;;;;;35.80;23.30;;;;;;;5.81;100.00;98940.94;1819316;78;22372;-63
2022/11/17 03:27:30;;;;;;;36.95;25.45;;;;;;;5.77;100.00;98939.70;1813038;77;20958;-62
2022/11/17 03:29:59;;;;;;;32.30;23.27;;;;;;;5.72;100.00;98935.09;1810514;78;20983;-72
2022/11/17 03:32:29;;;;;;;30.32;21.10;;;;;;;5.66;100.00;98930.64;1811642;78;21237;-62
2022/11/17 03:34:58;;;;;;;31.43;22.17;;;;;;;5.68;100.00;98929.95;1811564;78;21069;-63
2022/11/17 03:37:27;;;;;;;33.70;22.53;;;;;;;5.68;100.00;98926.07;1776791;80;22195;-63
2022/11/17 03:39:59;;;;;;;32.20;22.77;;;;;;;5.69;100.00;98924.31;1784703;78;21181;-70
2022/11/17 03:42:27;;;;;;;;;;;;;;;5.58;100.00;98918.63;1811305;78;21221;-62
2022/11/17 03:44:57;;;;;;;33.97;23.00;;;;;;;5.55;100.00;98918.99;1790806;78;20216;-63
2022/11/17 03:47:25;;;;;;;33.13;23.20;;;;;;;5.68;100.00;98916.22;1785078;79;21273;-62
2022/11/17 03:50:15;;;;;;;33.50;23.03;;;;;;;5.71;100.00;98910.69;1809216;78;21233;-62
2022/11/17 03:52:43;;;;;;;32.70;22.90;;;;;;;5.73;100.00;98906.16;1796691;79;21433;-65
2022/11/17 03:55:10;;;;;;;34.50;23.00;;;;;;;5.73;100.00;98904.36;1796707;79;21313;-70
2022/11/17 03:57:52;;;;;;;32.50;22.00;;;;;;;5.79;100.00;98902.31;1808305;78;21254;-63
2022/11/17 04:00:20;;;;;;;36.90;22.55;;;;;;;5.80;100.00;98891.50;1779964;79;22375;-66
2022/11/17 04:02:54;;;;;;;33.02;21.70;;;;;;;5.80;100.00;98890.20;1797710;78;21460;-65
2022/11/17 04:05:22;;;;;;;30.97;20.43;;;;;;;5.76;100.00;98892.86;1783172;79;21001;-65
2022/11/17 04:07:49;;;;;;;29.20;20.10;;;;;;;5.73;100.00;98891.44;1776106;79;21600;-65
2022/11/17 04:10:24;;;;;;;36.27;22.27;;;;;;;5.71;100.00;98884.34;1796219;78;21191;-64
2022/11/17 04:15:55;;;;;;;36.28;23.35;;;;;;;5.68;100.00;98874.86;1828781;78;21900;-68
2022/11/17 04:18:25;;;;;;;32.93;23.10;;;;;;;5.65;100.00;98879.93;1828501;78;21574;-63
2022/11/17 04:20:55;;;;;;;33.55;22.25;;;;;;;5.66;100.00;98876.35;1829408;78;21815;-62
2022/11/17 04:23:23;;;;;;;31.20;21.93;;;;;;;5.58;100.00;98870.02;1828947;78;21037;-69
2022/11/17 04:28:44;;;;;;;32.57;22.90;;;;;;;5.64;100.00;98862.00;1805479;79;21271;-63
2022/11/17 04:31:24;;;;;;;34.53;23.20;;;;;;;5.63;100.00;98859.12;1804807;79;21230;-63
2022/11/17 04:33:53;;;;;;;31.73;23.17;;;;;;;5.59;100.00;98858.69;1804903;79;21212;-69
2022/11/17 04:36:26;;;;;;;33.37;22.33;;;;;;;5.61;100.00;98856.73;1805598;78;23026;-62
2022/11/17 04:38:55;;;;;;;32.20;20.97;;;;;;;5.59;100.00;98849.64;1789131;79;21786;-61
2022/11/17 04:44:10;;;;;;;34.47;22.50;;;;;;;5.54;100.00;98845.53;1765179;80;21101;-63
2022/11/17 04:46:38;;;;;;;35.80;23.50;;;;;;;5.58;100.00;98843.67;1772613;79;21204;-63
2022/11/17 04:49:06;;;;;;;35.07;23.03;;;;;;;5.56;100.00;98840.45;1775630;79;21145;-71
2022/11/17 04:51:33;;;;;;;32.73;21.73;;;;;;;5.58;100.00;98842.87;1786635;79;20971;-69
2022/11/17 04:54:01;;;;;;;34.97;21.97;;;;;;;5.63;100.00;98848.78;1766424;79;21311;-62
2022/11/17 04:56:29;;;;;;;30.83;20.47;;;;;;;5.64;100.00;98842.61;1765567;79;21206;-62
2022/11/17 04:58:57;;;;;;;37.75;22.90;;;;;;;5.72;100.00;98842.48;1796958;79;21074;-62
2022/11/17 05:01:25;;;;;;;27.83;21.00;;;;;;;5.77;100.00;98838.86;1785519;79;20928;-67
2022/11/17 05:04:10;;;;;;;32.90;21.70;;;;;;;5.80;100.00;98842.37;1744276;81;21249;-61
2022/11/17 05:06:41;;;;;;;33.00;22.33;;;;;;;5.82;100.00;98848.94;1782840;79;21186;-62
2022/11/17 05:09:13;;;;;;;34.67;20.63;;;;;;;5.89;100.00;98849.49;1773625;79;21232;-67
2022/11/17 05:14:27;;;;;;;29.93;20.43;;;;;;;5.97;100.00;98839.04;1790326;79;21666;-62
2022/11/17 05:17:13;;;;;;;28.47;18.77;;;;;;;6.02;100.00;98840.09;1750567;81;21067;-68
2022/11/17 05:19:27;;;;;;;29.13;18.00;;;;;;;6.06;100.00;98841.31;1746007;80;21381;-62
2022/11/17 05:21:55;;;;;;;26.07;16.50;;;;;;;6.08;100.00;98838.02;1777106;79;21762;-62
2022/11/17 05:24:22;;;;;;;27.07;16.67;;;;;;;6.12;100.00;98832.48;1776165;79;21646;-63
2022/11/17 05:26:49;;;;;;;27.20;17.90;;;;;;;6.19;100.00;98834.63;1792470;79;21187;-68
2022/11/17 05:29:18;;;;;;;27.30;18.27;;;;;;;6.19;100.00;98838.50;1775698;79;21747;-62
2022/11/17 05:31:46;;;;;;;27.67;18.33;;;;;;;6.19;100.00;98838.50;1769357;80;21936;-61
2022/11/17 05:34:16;;;;;;;27.27;17.40;;;;;;;6.20;100.00;98835.71;1768735;80;21103;-63
2022/11/17 05:36:43;;;;;;;30.33;17.97;;;;;;;6.23;100.00;98827.58;1764384;80;20982;-62
2022/11/17 05:39:12;;;;;;;26.03;16.63;;;;;;;6.28;100.00;98832.17;1775152;79;21191;-63
2022/11/17 05:41:40;;;;;;;26.80;17.82;;;;;;;6.37;100.00;98827.67;1775594;79;21634;-62
2022/11/17 05:44:07;;;;;;;26.77;17.70;;;;;;;6.46;100.00;98835.08;1785221;79;21247;-61
2022/11/17 05:46:35;;;;;;;30.67;18.23;;;;;;;6.40;100.00;98828.56;1771467;80;21715;-61
2022/11/17 05:49:03;;;;;;;28.97;18.20;;;;;;;6.42;100.00;98829.98;1773296;79;21215;-63
2022/11/17 05:51:31;;;;;;;26.33;17.07;;;;;;;6.43;100.00;98822.51;1777477;79;22386;-67
2022/11/17 05:53:59;;;;;;;25.10;17.20;;;;;;;6.40;100.00;98819.00;1778948;79;21236;-62
2022/11/17 05:56:34;;;;;;;28.00;19.63;;;;;;;6.42;100.00;98817.03;1774874;79;22270;-62
2022/11/17 05:59:28;;;;;;;26.43;17.27;;;;;;;6.49;100.00;98817.08;1777138;79;21310;-65
2022/11/17 06:02:17;;;;;;;26.47;17.03;;;;;;;6.64;100.00;98816.95;1785245;79;21216;-65
2022/11/17 06:04:45;;;;;;;28.83;16.77;;;;;;;6.60;100.00;98813.15;1788044;79;21899;-65
2022/11/17 06:07:12;;;;;;;24.63;15.93;;;;;;;6.65;100.00;98798.62;1785666;80;21254;-62
2022/11/17 06:09:41;;;;;;;26.40;17.07;;;;;;;6.65;100.00;98796.53;1781730;79;21880;-63
2022/11/17 06:12:10;;;;;;;29.20;18.20;;;;;;;6.69;100.00;98799.83;1776486;79;21377;-64
2022/11/17 06:14:38;;;;;;;56.73;38.00;;;;;;;6.72;100.00;98799.45;1774740;79;21230;-63
2022/11/17 06:17:13;;;;;;;25.53;17.00;;;;;;;6.75;100.00;98799.06;1772512;79;21245;-63
2022/11/17 06:19:44;;;;;;;22.97;15.50;;;;;;;6.79;100.00;98795.59;1774861;79;21262;-63
2022/11/17 06:22:11;;;;;;;22.30;15.37;;;;;;;6.83;100.00;98789.82;1771995;79;22871;-63
2022/11/17 06:24:41;;;;;;;21.87;15.23;;;;;;;6.86;100.00;98789.94;1775591;78;22210;-64
2022/11/17 06:27:09;;;;;;;24.00;15.03;;;;;;;6.89;100.00;98790.03;1791949;78;21349;-64
2022/11/17 06:29:38;;;;;;;21.37;15.07;;;;;;;6.95;100.00;98787.47;1750872;78;21257;-71
2022/11/17 06:32:05;;;;;;;21.03;14.17;;;;;;;6.98;100.00;98781.10;1796042;78;21045;-68
2022/11/17 06:34:36;;;;;;;21.20;15.00;;;;;;;7.03;100.00;98785.98;1777084;79;21999;-62
2022/11/17 06:37:03;;;;;;;23.53;16.43;;;;;;;7.01;100.00;98772.44;1782974;79;21879;-64
2022/11/17 06:39:31;;;;;;;22.77;16.13;;;;;;;7.10;100.00;98771.75;1785122;79;21243;-63
2022/11/17 06:41:58;;;;;;;21.90;14.37;;;;;;;7.11;100.00;98775.14;1778234;79;21669;-62
2022/11/17 06:44:27;;;;;;;17.47;12.67;;;;;;;7.10;100.00;98773.55;1790943;78;21317;-64
2022/11/17 06:46:54;;;;;;;21.17;13.63;;;;;;;7.13;100.00;98765.39;1792607;79;21968;-64
2022/11/17 06:49:21;;;;;;;18.27;13.47;;;;;;;7.16;100.00;98764.50;1793617;79;21101;-64
2022/11/17 06:51:48;;;;;;;18.70;13.17;;;;;;;7.18;100.00;98757.31;1785947;78;21829;-69
2022/11/17 06:54:17;;;;;;;18.23;13.20;;;;;;;7.18;100.00;98752.13;1799232;78;21219;-71
2022/11/17 06:56:45;;;;;;;16.50;11.47;;;;;;;7.17;100.00;98751.84;1779571;79;21223;-65
2022/11/17 06:59:14;;;;;;;15.37;11.23;;;;;;;7.21;100.00;98752.23;1787507;78;21278;-65
2022/11/17 07:01:43;;;;;;;20.03;13.10;;;;;;;7.18;100.00;98748.74;1775006;79;21203;-66
2022/11/17 07:04:10;;;;;;;17.07;13.93;;;;;;;7.22;100.00;98748.14;1799815;79;21295;-63
2022/11/17 07:06:38;;;;;;;20.57;14.33;;;;;;;7.25;100.00;98746.95;1761685;79;21544;-63
2022/11/17 07:09:06;;;;;;;19.60;12.57;;;;;;;7.29;100.00;98747.66;1807572;78;21782;-63
2022/11/17 07:11:37;;;;;;;16.97;11.90;;;;;;;7.35;100.00;98749.97;1759917;79;21248;-66
2022/11/17 07:14:04;;;;;;;16.07;10.77;;;;;;;7.39;100.00;98743.38;1762469;79;21365;-63
2022/11/17 07:16:32;;;;;;;16.43;11.70;;;;;;;7.44;100.00;98742.28;1782692;79;21260;-62
2022/11/17 07:19:02;;;;;;;13.93;10.23;;;;;;;7.51;100.00;98739.69;1769347;78;21236;-63
2022/11/17 07:21:30;;;;;;;16.03;10.53;;;;;;;7.55;100.00;98730.51;1774466;80;21226;-71
2022/11/17 07:23:57;;;;;;;15.07;10.63;;;;;;;7.56;100.00;98722.52;1803995;78;22000;-62
2022/11/17 07:26:25;;;;;;;15.70;10.27;;;;;;;7.59;100.00;98723.13;1776132;79;21752;-65
2022/11/17 07:28:53;;;;;;;12.97;10.97;;;;;;;7.58;100.00;98724.11;1777900;79;21417;-62
2022/11/17 07:31:20;;;;;;;14.53;9.83;;;;;;;7.58;100.00;98724.11;1791272;79;22000;-63
2022/11/17 07:33:49;;;;;;;12.73;9.43;;;;;;;7.56;100.00;98719.92;1778168;79;21146;-68
2022/11/17 07:36:16;;;;;;;11.93;9.50;;;;;;;7.55;100.00;98722.73;1780098;79;21428;-73
2022/11/17 07:38:43;;;;;;;11.90;9.60;;;;;;;7.55;100.00;98724.82;1779853;79;21322;-65
2022/11/17 07:41:12;;;;;;;14.80;9.27;;;;;;;7.60;100.00;98724.72;1782095;79;21086;-63
2022/11/17 07:43:39;;;;;;;11.43;9.43;;;;;;;7.61;100.00;98730.19;1770917;79;21238;-63
2022/11/17 07:46:09;;;;;;;14.30;9.23;;;;;;;7.67;100.00;98733.29;1778381;79;21435;-72
2022/11/17 07:48:39;;;;;;;12.87;9.07;;;;;;;7.68;100.00;98729.69;1764457;80;21353;-63
2022/11/17 07:51:06;;;;;;;13.57;9.70;;;;;;;7.63;100.00;98729.50;1770602;80;21261;-67
2022/11/17 07:53:33;;;;;;;15.83;11.57;;;;;;;7.72;100.00;98721.30;1754760;81;21873;-64
2022/11/17 07:56:06;;;;;;;14.10;10.70;;;;;;;7.77;100.00;98731.09;1767313;79;21338;-72
2022/11/17 07:58:34;;;;;;;13.37;10.60;;;;;;;7.80;100.00;98725.47;1755299;80;21934;-69
2022/11/17 08:01:14;;;;;;;12.27;9.37;;;;;;;7.84;100.00;98724.09;1763387;79;21947;-70
2022/11/17 08:03:43;;;;;;;14.23;10.27;;;;;;;7.88;100.00;98719.27;1775434;79;21810;-67
2022/11/17 08:06:10;;;;;;;16.87;10.70;;;;;;;7.93;100.00;98716.89;1761100;79;21418;-64
2022/11/17 08:08:37;;;;;;;14.67;10.60;;;;;;;7.96;100.00;98708.20;1776528;79;21408;-61
2022/11/17 08:11:06;;;;;;;16.80;10.23;;;;;;;8.04;100.00;98703.28;1781961;79;21204;-63
2022/11/17 11:01:31;;;;;;;15.57;12.73;;;;;;;10.50;100.00;98648.78;1807937;77;22006;-69
2022/11/17 11:03:58;;;;;;;;;;;;;;;10.66;100.00;98647.34;1752485;80;20947;-64
2022/11/17 11:06:28;;;;;;;15.03;11.23;;;;;;;10.60;100.00;98652.14;1775612;79;21160;-63
2022/11/17 11:09:11;;;;;;;16.67;13.23;;;;;;;10.88;100.00;98653.63;1800756;79;22181;-68
2022/11/17 11:11:53;;;;;;;17.27;12.53;;;;;;;10.89;100.00;98657.03;1790685;79;21643;-63
2022/11/17 11:14:37;;;;;;;18.43;13.87;;;;;;;10.93;100.00;98655.05;1786858;79;22099;-67
2022/11/17 11:17:14;;;;;;;16.37;13.03;;;;;;;10.84;100.00;98649.89;1797851;78;21739;-60
2022/11/17 11:19:47;;;;;;;17.63;13.30;;;;;;;10.94;100.00;98646.20;1795630;79;21745;-64
2022/11/17 11:22:38;;;;;;;18.50;14.47;;;;;;;10.83;100.00;98656.09;1780257;79;21549;-61
2022/11/17 11:25:52;;;;;;;19.73;14.67;;;;;;;10.61;100.00;98647.23;1768787;78;21473;-61
2022/11/17 11:28:42;;;;;;;21.43;16.10;;;;;;;10.76;100.00;98652.83;1763186;80;21604;-60
2022/11/17 11:31:14;;;;;;;19.53;14.90;;;;;;;10.76;100.00;98652.83;1778861;79;22236;-64
2022/11/17 11:33:50;;;;;;;20.40;14.77;;;;;;;10.98;100.00;98658.28;1773602;79;21653;-62
2022/11/17 11:36:29;;;;;;;24.33;16.90;;;;;;;11.02;100.00;98665.15;1775203;79;21616;-62
2022/11/17 11:39:19;;;;;;;21.97;16.43;;;;;;;10.85;100.00;98665.80;1779923;79;21537;-61
2022/11/17 11:42:40;;;;;;;22.37;16.60;;;;;;;10.67;100.00;98665.88;1810242;79;21697;-63
2022/11/17 11:45:19;;;;;;;22.37;16.37;;;;;;;10.61;100.00;98671.47;1785657;79;21606;-70
2022/11/17 11:48:21;;;;;;;20.17;15.60;;;;;;;10.66;100.00;98672.90;1801792;79;21687;-69
2022/11/17 11:50:57;;;;;;;24.80;17.97;;;;;;;10.90;100.00;98678.16;1741382;81;21802;-64
2022/11/17 11:53:47;;;;;;;25.37;18.97;;;;;;;10.98;100.00;98674.44;1767425;79;21585;-62
2022/11/17 11:56:28;;;;;;;24.87;19.30;;;;;;;10.82;100.00;98674.58;1797063;79;21595;-65
2022/11/17 11:59:22;;;;;;;27.05;20.52;;;;;;;10.77;100.00;98679.16;1773156;79;21684;-61
2022/11/17 12:02:06;;;;;;;28.07;20.03;;;;;;;10.83;100.00;98672.25;1759280;80;21900;-62
2022/11/17 12:04:44;;;;;;;29.30;17.83;;;;;;;10.79;100.00;98669.30;1784229;80;21455;-61
2022/11/17 12:07:44;;;;;;;24.43;18.33;;;;;;;10.76;100.00;98680.19;1783769;80;21397;-69
2022/11/17 12:10:37;;;;;;;24.17;17.67;;;;;;;10.64;100.00;98677.52;1784482;80;23082;-61
2022/11/17 12:13:05;;;;;;;24.27;16.70;;;;;;;10.54;100.00;98673.89;1784331;80;23378;-61
2022/11/17 12:15:34;;;;;;;23.07;17.23;;;;;;;10.52;100.00;98676.69;1781108;80;22122;-61
2022/11/17 12:18:11;;;;;;;23.60;17.67;;;;;;;10.48;100.00;98684.16;1762246;81;21742;-60
2022/11/17 12:21:06;;;;;;;28.03;19.07;;;;;;;10.48;100.00;98684.16;1762498;81;21540;-60
2022/11/17 12:24:14;;;;;;;25.33;18.80;;;;;;;10.44;100.00;98687.42;1782977;80;21742;-69
2022/11/17 12:26:42;;;;;;;25.73;18.60;;;;;;;10.33;100.00;98685.56;1783336;80;22163;-62
2022/11/17 12:29:24;;;;;;;23.30;17.70;;;;;;;10.33;100.00;98672.55;1747850;80;21600;-69
2022/11/17 12:31:58;;;;;;;;;;;;;;;10.42;100.00;98687.66;1786444;80;21603;-63
2022/11/17 12:34:40;;;;;;;28.83;18.07;;;;;;;10.36;100.00;98685.92;1783552;80;20127;-62
2022/11/17 12:37:17;;;;;;;27.57;17.73;;;;;;;10.25;100.00;98693.17;1781313;80;21772;-62
2022/11/17 12:40:11;;;;;;;24.93;17.67;;;;;;;10.27;100.00;98693.77;1783609;80;22194;-68
2022/11/17 12:42:36;;;;;;;29.32;19.75;;;;;;;10.21;100.00;98690.17;1781402;79;21487;-61
2022/11/17 12:45:06;;;;;;;28.10;19.77;;;;;;;10.18;100.00;98702.33;1782060;80;20863;-61
2022/11/17 12:47:37;;;;;;;28.83;19.40;;;;;;;10.18;100.00;98702.33;1781572;80;21344;-62
2022/11/17 12:50:20;;;;;;;24.30;17.17;;;;;;;10.11;100.00;98702.11;1782810;80;21566;-62
2022/11/17 12:53:27;;;;;;;23.12;15.93;;;;;;;10.11;100.00;98702.11;1784155;80;21428;-60
2022/11/17 12:56:09;;;;;;;24.60;17.03;;;;;;;10.24;100.00;98708.48;1731928;82;21168;-60
2022/11/17 12:59:07;;;;;;;23.30;16.07;;;;;;;10.24;100.00;98708.48;1731019;82;21622;-60
2022/11/17 13:02:14;;;;;;;21.27;14.57;;;;;;;9.99;100.00;98724.17;1729087;81;21293;-61
2022/11/17 13:04:48;;;;;;;19.03;14.47;;;;;;;10.12;100.00;98729.25;1741967;80;21357;-60
2022/11/17 13:07:21;;;;;;;21.47;15.40;;;;;;;9.97;100.00;98722.31;1769826;81;21385;-70
2022/11/17 13:09:51;;;;;;;25.10;15.23;;;;;;;9.97;100.00;98722.31;1768585;81;21587;-69
2022/11/17 13:12:27;;;;;;;20.65;13.98;;;;;;;9.86;100.00;98727.72;1780305;79;24745;-60
2022/11/17 13:14:57;;;;;;;19.67;14.37;;;;;;;9.92;100.00;98732.55;1793801;79;20917;-60
2022/11/17 13:17:30;;;;;;;22.70;16.23;;;;;;;10.04;100.00;98737.84;1793186;79;21368;-63
2022/11/17 13:20:13;;;;;;;24.17;17.07;;;;;;;9.99;100.00;98736.67;1793378;79;22205;-60
2022/11/17 13:22:40;;;;;;;22.93;17.70;;;;;;;9.99;100.00;98736.67;1789531;79;21958;-66
2022/11/17 13:25:22;;;;;;;22.47;15.40;;;;;;;9.99;100.00;98743.70;1793226;79;21291;-60
2022/11/17 13:27:49;;;;;;;24.63;16.60;;;;;;;10.03;100.00;98750.57;1793757;79;21546;-60
2022/11/17 13:30:27;;;;;;;22.20;16.37;;;;;;;9.95;100.00;98751.14;1793812;79;21091;-60
2022/11/17 13:32:55;;;;;;;25.10;17.47;;;;;;;9.97;100.00;98753.55;1793612;79;21585;-59
2022/11/17 13:35:31;;;;;;;25.73;18.00;;;;;;;10.05;100.00;98741.55;1793246;79;21614;-65
2022/11/17 13:38:08;;;;;;;26.87;20.00;;;;;;;10.05;100.00;98741.55;1797411;79;22185;-59
2022/11/17 13:40:35;;;;;;;28.63;20.47;;;;;;;10.02;100.00;98750.29;1796544;79;21440;-60
2022/11/17 13:43:04;;;;;;;26.87;19.07;;;;;;;10.02;100.00;98750.29;1798197;78;21405;-60
2022/11/17 13:45:32;;;;;;;26.70;18.23;;;;;;;9.98;100.00;98739.00;1795407;79;22295;-59
2022/11/17 13:47:59;;;;;;;28.50;19.13;;;;;;;9.96;100.00;98738.44;1768394;79;21650;-68
2022/11/17 13:50:31;;;;;;;24.73;17.03;;;;;;;9.96;100.00;98738.44;1762135;79;21432;-59
2022/11/17 13:53:06;;;;;;;27.43;18.03;;;;;;;9.94;100.00;98737.84;1755863;81;21254;-63
2022/11/17 13:55:34;;;;;;;26.67;18.97;;;;;;;9.95;100.00;98742.03;1770134;81;21461;-61
2022/11/17 13:58:07;;;;;;;25.80;18.77;;;;;;;9.89;100.00;98749.92;1769831;79;21823;-69
2022/11/17 14:00:34;;;;;;;31.37;19.90;;;;;;;9.89;100.00;98749.92;1769972;79;21737;-61
2022/11/17 14:03:05;;;;;;;20.37;14.03;;;;;;;10.03;100.00;98750.57;1766560;79;21508;-61
2022/11/17 14:05:32;;;;;;;12.25;9.55;;;;;;;10.03;100.00;98750.57;1741454;80;21567;-61
2022/11/17 14:08:16;;;;;;;12.33;8.40;;;;;;;10.05;100.00;98750.66;1742116;81;21026;-65
2022/11/17 14:10:45;;;;;;;8.27;6.73;;;;;;;10.04;100.00;98757.36;1744082;81;21498;-62
2022/11/17 14:13:23;;;;;;;9.57;6.93;;;;;;;10.03;100.00;98758.37;1757216;81;21676;-60
2022/11/17 14:15:55;;;;;;;10.63;6.80;;;;;;;10.00;100.00;98758.33;1769014;80;21657;-61
2022/11/17 14:18:30;;;;;;;9.30;7.28;;;;;;;10.00;100.00;98758.33;1769659;79;23308;-61
2022/11/17 14:21:14;;;;;;;10.87;7.67;;;;;;;9.87;100.00;98756.63;1770098;81;21035;-60
2022/11/17 14:23:42;;;;;;;9.17;6.63;;;;;;;9.76;100.00;98762.53;1769515;79;21445;-60
2022/11/17 14:26:21;;;;;;;8.80;5.80;;;;;;;9.76;100.00;98762.53;1767579;81;21427;-61
2022/11/17 14:28:49;;;;;;;9.43;6.40;;;;;;;9.55;100.00;98760.34;1758782;81;21370;-59
2022/11/17 14:31:17;;;;;;;9.97;6.60;;;;;;;9.55;100.00;98760.34;1758369;81;21443;-67
2022/11/17 14:33:44;;;;;;;10.83;7.43;;;;;;;9.41;100.00;98771.34;1758713;81;21474;-68
2022/11/17 14:36:14;;;;;;;9.70;7.20;;;;;;;9.41;100.00;98769.53;1758392;81;22026;-59
2022/11/17 14:38:43;;;;;;;10.27;6.90;;;;;;;9.43;100.00;98769.30;1758942;81;21309;-59
2022/11/17 14:41:11;;;;;;;11.50;7.57;;;;;;;9.43;100.00;98769.30;1758883;81;21846;-61
2022/11/17 14:43:39;;;;;;;12.97;7.77;;;;;;;9.44;100.00;98770.41;1739725;81;21995;-60
2022/11/17 14:46:15;;;;;;;9.40;6.50;;;;;;;9.45;100.00;98773.30;1769464;81;21895;-60
2022/11/17 14:48:43;;;;;;;8.23;5.50;;;;;;;9.45;100.00;98773.30;1770072;81;21325;-60
2022/11/17 14:51:10;;;;;;;8.80;5.63;;;;;;;9.40;100.00;98772.36;1770010;81;21419;-59
2022/11/17 14:53:37;;;;;;;8.87;6.33;;;;;;;9.36;100.00;98773.28;1769654;79;21458;-68
2022/11/17 14:56:09;;;;;;;6.80;5.07;;;;;;;9.37;100.00;98773.56;1769706;79;21356;-61
2022/11/17 14:58:36;;;;;;;6.10;4.33;;;;;;;9.28;100.00;98770.12;1768941;80;21248;-61
2022/11/17 15:01:12;;;;;;;6.90;4.97;;;;;;;9.12;100.00;98768.83;1775746;79;20996;-63
2022/11/17 15:03:40;;;;;;;6.60;4.83;;;;;;;9.05;100.00;98763.66;1763198;80;21819;-69
2022/11/17 15:06:08;;;;;;;9.87;5.20;;;;;;;9.04;100.00;98762.59;1784136;80;21686;-59
2022/11/17 15:08:36;;;;;;;7.40;5.00;;;;;;;8.95;100.00;98760.75;1784183;80;21249;-60
2022/11/17 15:11:04;;;;;;;6.50;4.77;;;;;;;8.89;100.00;98764.17;1754960;78;21358;-59
2022/11/17 15:13:32;;;;;;;5.50;3.67;;;;;;;8.86;100.00;98762.77;1771236;79;21275;-68
2022/11/17 15:16:05;;;;;;;4.77;3.57;;;;;;;8.92;100.00;98767.66;1752798;81;21232;-59
2022/11/17 15:18:32;;;;;;;6.60;4.70;;;;;;;8.85;100.00;98764.29;1753033;81;21850;-59
2022/11/17 15:21:05;;;;;;;6.03;4.03;;;;;;;8.85;100.00;98764.29;1753221;81;21850;-62
2022/11/17 15:23:32;;;;;;;6.77;4.17;;;;;;;8.83;100.00;98764.52;1756221;79;21263;-68
2022/11/17 15:26:10;;;;;;;5.50;3.33;;;;;;;8.81;100.00;98764.41;1766021;80;21227;-62
2022/11/17 15:28:37;;;;;;;5.73;3.27;;;;;;;8.75;100.00;98766.03;1753099;81;21294;-60
2022/11/17 15:31:12;;;;;;;5.63;3.47;;;;;;;8.74;100.00;98768.34;1753366;81;21809;-61
2022/11/17 15:33:41;;;;;;;4.70;2.97;;;;;;;8.71;100.00;98764.85;1762496;79;21110;-63
2022/11/17 15:36:10;;;;;;;3.60;2.50;;;;;;;8.62;100.00;98757.80;1753080;81;21383;-59
2022/11/17 15:38:38;;;;;;;4.83;2.80;;;;;;;8.56;100.00;98756.05;1753436;81;21259;-59
2022/11/17 15:41:06;;;;;;;4.57;2.93;;;;;;;8.46;100.00;98762.97;1779147;79;21301;-59
2022/11/17 15:43:37;;;;;;;3.40;2.10;;;;;;;8.30;100.00;98763.41;1764651;80;21642;-60
2022/11/17 15:46:10;;;;;;;2.77;1.67;;;;;;;8.25;100.00;98764.50;1752872;81;21366;-59
2022/11/17 15:48:41;;;;;;;3.47;2.00;;;;;;;8.20;100.00;98761.73;1778046;80;21723;-60
2022/11/17 15:51:16;;;;;;;3.57;2.10;;;;;;;8.17;100.00;98756.94;1760058;80;21753;-67
2022/11/17 15:53:45;;;;;;;3.87;1.73;;;;;;;8.04;100.00;98753.38;1753447;81;21361;-59
2022/11/17 15:56:19;;;;;;;5.30;1.67;;;;;;;8.03;100.00;98755.69;1753192;81;21496;-60
2022/11/17 15:58:48;;;;;;;3.30;1.30;;;;;;;7.99;100.00;98751.91;1752831;80;21203;-67
2022/11/17 16:01:30;;;;;;;3.70;1.63;;;;;;;7.73;100.00;98751.95;1751954;81;21127;-59
2022/11/17 16:03:59;;;;;;;3.72;2.10;;;;;;;7.68;100.00;98751.73;1754303;81;21236;-59
2022/11/17 16:06:28;;;;;;;3.80;1.70;;;;;;;7.60;100.00;98757.92;1770380;81;21136;-59
2022/11/17 16:08:55;;;;;;;3.17;1.47;;;;;;;7.56;100.00;98755.44;1769257;79;21255;-67
2022/11/17 16:11:23;;;;;;;2.97;1.30;;;;;;;7.52;100.00;98760.22;1770374;79;21125;-58
2022/11/17 16:13:54;;;;;;;3.30;1.77;;;;;;;7.37;100.00;98758.33;1770375;80;21106;-58
2022/11/17 16:16:21;;;;;;;3.90;1.98;;;;;;;7.11;100.00;98754.41;1770297;79;21712;-59
2022/11/17 16:18:49;;;;;;;3.73;2.13;;;;;;;6.90;100.00;98752.30;1769249;81;22284;-66
2022/11/17 16:21:16;;;;;;;3.57;1.50;;;;;;;6.73;100.00;98747.16;1769809;81;21369;-58
2022/11/17 16:23:48;;;;;;;3.70;1.80;;;;;;;6.64;100.00;98747.04;1770077;81;21175;-58
2022/11/17 16:26:18;;;;;;;2.90;1.27;;;;;;;6.53;100.00;98747.09;1783093;79;21213;-64
2022/11/17 16:28:48;;;;;;;2.97;1.83;;;;;;;6.44;100.00;98745.66;1753932;81;21083;-68
2022/11/17 16:31:21;;;;;;;2.83;1.50;;;;;;;6.39;100.00;98741.06;1769743;81;21249;-61
2022/11/17 16:33:53;;;;;;;2.77;1.40;;;;;;;6.32;100.00;98741.52;1740294;81;21099;-63
2022/11/17 16:36:21;;;;;;;2.80;1.40;;;;;;;6.26;100.00;98735.84;1739724;81;21165;-61
2022/11/17 16:38:52;;;;;;;3.23;1.63;;;;;;;6.09;100.00;98733.55;1738236;81;21219;-61
2022/11/17 16:41:30;;;;;;;5.47;2.00;;;;;;;6.02;100.00;98734.03;1767107;79;21471;-60
2022/11/17 16:43:59;;;;;;;3.08;1.32;;;;;;;5.95;100.00;98733.70;1767528;79;21251;-60
2022/11/17 16:46:28;;;;;;;2.47;1.30;;;;;;;5.78;100.00;98725.39;1756809;81;20996;-60
2022/11/17 16:48:55;;;;;;;3.70;1.65;;;;;;;5.65;100.00;98720.16;1769761;79;21666;-60
2022/11/17 16:51:23;;;;;;;3.25;1.25;;;;;;;5.54;100.00;98720.97;1770239;81;20979;-60
2022/11/17 16:53:58;;;;;;;3.17;1.45;;;;;;;5.45;100.00;98722.08;1770390;81;21001;-60
2022/11/17 16:56:27;;;;;;;3.30;1.30;;;;;;;5.39;100.00;98724.14;1769409;79;20889;-69
2022/11/17 16:58:55;;;;;;;2.62;1.32;;;;;;;5.42;100.00;98726.34;1769942;79;21259;-60
2022/11/17 17:01:29;;;;;;;3.47;1.70;;;;;;;5.37;100.00;98724.80;1773495;79;20892;-60
2022/11/17 17:04:00;;;;;;;2.90;1.35;;;;;;;5.27;100.00;98721.27;1794934;79;20889;-60
2022/11/17 17:06:27;;;;;;;2.27;1.10;;;;;;;5.17;100.00;98720.77;1799351;79;21016;-60
2022/11/17 17:09:01;;;;;;;2.85;1.45;;;;;;;5.12;100.00;98720.53;1795205;79;22364;-59
2022/11/17 17:11:30;;;;;;;3.50;1.37;;;;;;;5.07;100.00;98722.36;1774822;78;20936;-59
2022/11/17 20:17:58;;;;;;;3.70;1.63;;;;;;;4.46;100.00;98444.59;1814114;77;22654;-70